sensor_id;sensor_type;location;lat;lon;timestamp;temperature;humidity
13433;DHT22;6789;47.678;9.158;2024-01-06T00:02:33;6.60;99.90
13433;DHT22;6789;47.678;9.158;2024-01-06T00:07:25;6.60;99.90
13433;DHT22;6789;47.678;9.158;2024-01-06T00:17:29;6.70;99.90
13433;DHT22;6789;47.678;9.158;2024-01-06T00:22:21;6.70;99.90
13433;DHT22;6789;47.678;9.158;2024-01-06T00:27:12;6.70;99.90
13433;DHT22;6789;47.678;9.158;2024-01-06T00:32:05;6.60;99.90
13433;DHT22;6789;47.678;9.158;2024-01-06T00:36:57;6.60;99.90
13433;DHT22;6789;47.678;9.158;2024-01-06T00:41:49;6.60;99.90
13433;DHT22;6789;47.678;9.158;2024-01-06T00:46:40;6.60;99.90
13433;DHT22;6789;47.678;9.158;2024-01-06T00:51:32;6.50;99.90
13433;DHT22;6789;47.678;9.158;2024-01-06T00:56:27;6.40;99.90
13433;DHT22;6789;47.678;9.158;2024-01-06T01:01:20;6.40;99.90
13433;DHT22;6789;47.678;9.158;2024-01-06T01:06:12;6.50;99.90
13433;DHT22;6789;47.678;9.158;2024-01-06T01:11:04;6.50;99.90
13433;DHT22;6789;47.678;9.158;2024-01-06T01:21:10;6.50;99.90
13433;DHT22;6789;47.678;9.158;2024-01-06T01:26:02;6.50;99.90
13433;DHT22;6789;47.678;9.158;2024-01-06T01:30:54;6.50;99.90
13433;DHT22;6789;47.678;9.158;2024-01-06T01:35:46;6.50;99.90
13433;DHT22;6789;47.678;9.158;2024-01-06T01:40:38;6.50;99.90
13433;DHT22;6789;47.678;9.158;2024-01-06T01:45:29;6.50;99.90
13433;DHT22;6789;47.678;9.158;2024-01-06T01:50:22;6.50;99.90
13433;DHT22;6789;47.678;9.158;2024-01-06T01:55:14;6.50;99.90
13433;DHT22;6789;47.678;9.158;2024-01-06T02:00:07;6.50;99.90
13433;DHT22;6789;47.678;9.158;2024-01-06T02:04:59;6.50;99.90
13433;DHT22;6789;47.678;9.158;2024-01-06T02:09:51;6.60;99.90
13433;DHT22;6789;47.678;9.158;2024-01-06T02:14:43;6.50;99.90
13433;DHT22;6789;47.678;9.158;2024-01-06T02:19:35;6.40;99.90
13433;DHT22;6789;47.678;9.158;2024-01-06T02:24:27;6.40;99.90
13433;DHT22;6789;47.678;9.158;2024-01-06T02:29:19;6.50;99.90
13433;DHT22;6789;47.678;9.158;2024-01-06T02:34:10;6.40;99.90
13433;DHT22;6789;47.678;9.158;2024-01-06T02:39:02;6.40;99.90
13433;DHT22;6789;47.678;9.158;2024-01-06T02:43:55;6.40;99.90
13433;DHT22;6789;47.678;9.158;2024-01-06T02:48:47;6.40;99.90
13433;DHT22;6789;47.678;9.158;2024-01-06T02:53:39;6.20;99.90
13433;DHT22;6789;47.678;9.158;2024-01-06T02:58:31;6.20;99.90
13433;DHT22;6789;47.678;9.158;2024-01-06T03:03:23;6.20;99.90
13433;DHT22;6789;47.678;9.158;2024-01-06T03:08:15;6.20;99.90
13433;DHT22;6789;47.678;9.158;2024-01-06T03:18:10;6.20;99.90
13433;DHT22;6789;47.678;9.158;2024-01-06T03:23:02;6.00;99.90
13433;DHT22;6789;47.678;9.158;2024-01-06T03:27:54;6.00;99.90
13433;DHT22;6789;47.678;9.158;2024-01-06T03:32:45;6.10;99.90
13433;DHT22;6789;47.678;9.158;2024-01-06T03:37:37;6.00;99.90
13433;DHT22;6789;47.678;9.158;2024-01-06T03:42:29;5.90;99.90
13433;DHT22;6789;47.678;9.158;2024-01-06T03:47:21;5.80;99.90
13433;DHT22;6789;47.678;9.158;2024-01-06T03:52:12;5.80;99.90
13433;DHT22;6789;47.678;9.158;2024-01-06T03:57:05;5.80;99.90
13433;DHT22;6789;47.678;9.158;2024-01-06T04:01:57;5.80;99.90
13433;DHT22;6789;47.678;9.158;2024-01-06T04:06:48;5.80;99.90
13433;DHT22;6789;47.678;9.158;2024-01-06T04:11:40;5.80;99.90
13433;DHT22;6789;47.678;9.158;2024-01-06T04:16:32;5.80;99.90
13433;DHT22;6789;47.678;9.158;2024-01-06T04:21:24;5.80;99.90
13433;DHT22;6789;47.678;9.158;2024-01-06T04:26:16;5.80;99.90
13433;DHT22;6789;47.678;9.158;2024-01-06T04:31:07;5.80;99.90
13433;DHT22;6789;47.678;9.158;2024-01-06T04:36:04;5.80;99.90
13433;DHT22;6789;47.678;9.158;2024-01-06T04:40:56;5.90;99.90
13433;DHT22;6789;47.678;9.158;2024-01-06T04:45:48;5.90;99.90
13433;DHT22;6789;47.678;9.158;2024-01-06T04:50:41;5.90;99.90
13433;DHT22;6789;47.678;9.158;2024-01-06T04:55:33;5.90;99.90
13433;DHT22;6789;47.678;9.158;2024-01-06T05:00:25;6.00;99.90
13433;DHT22;6789;47.678;9.158;2024-01-06T05:05:27;5.90;99.90
13433;DHT22;6789;47.678;9.158;2024-01-06T05:10:19;5.90;99.90
13433;DHT22;6789;47.678;9.158;2024-01-06T05:15:12;5.90;99.90
13433;DHT22;6789;47.678;9.158;2024-01-06T05:20:04;5.80;99.90
13433;DHT22;6789;47.678;9.158;2024-01-06T05:24:56;5.90;99.90
13433;DHT22;6789;47.678;9.158;2024-01-06T05:29:48;5.90;99.90
13433;DHT22;6789;47.678;9.158;2024-01-06T05:34:40;5.80;99.90
13433;DHT22;6789;47.678;9.158;2024-01-06T05:39:33;5.80;99.90
13433;DHT22;6789;47.678;9.158;2024-01-06T05:44:24;5.80;99.90
13433;DHT22;6789;47.678;9.158;2024-01-06T05:49:16;5.80;99.90
13433;DHT22;6789;47.678;9.158;2024-01-06T05:54:08;5.80;99.90
13433;DHT22;6789;47.678;9.158;2024-01-06T05:59:00;5.80;99.90
13433;DHT22;6789;47.678;9.158;2024-01-06T06:03:51;5.80;99.90
13433;DHT22;6789;47.678;9.158;2024-01-06T06:08:44;5.90;99.90
13433;DHT22;6789;47.678;9.158;2024-01-06T06:13:42;5.80;99.90
13433;DHT22;6789;47.678;9.158;2024-01-06T06:18:34;5.90;99.90
13433;DHT22;6789;47.678;9.158;2024-01-06T06:23:27;5.90;99.90
13433;DHT22;6789;47.678;9.158;2024-01-06T06:28:20;5.80;99.90
13433;DHT22;6789;47.678;9.158;2024-01-06T06:33:12;5.80;99.90
13433;DHT22;6789;47.678;9.158;2024-01-06T06:38:04;5.80;99.90
13433;DHT22;6789;47.678;9.158;2024-01-06T06:42:56;5.70;99.90
13433;DHT22;6789;47.678;9.158;2024-01-06T06:47:50;5.70;99.90
13433;DHT22;6789;47.678;9.158;2024-01-06T06:52:42;5.60;99.90
13433;DHT22;6789;47.678;9.158;2024-01-06T06:57:34;5.70;99.90
13433;DHT22;6789;47.678;9.158;2024-01-06T07:02:27;5.60;99.90
13433;DHT22;6789;47.678;9.158;2024-01-06T07:07:19;5.60;99.90
13433;DHT22;6789;47.678;9.158;2024-01-06T07:12:11;5.60;99.90
13433;DHT22;6789;47.678;9.158;2024-01-06T07:17:03;5.60;99.90
13433;DHT22;6789;47.678;9.158;2024-01-06T07:21:55;5.50;99.90
13433;DHT22;6789;47.678;9.158;2024-01-06T07:26:47;5.50;99.90
13433;DHT22;6789;47.678;9.158;2024-01-06T07:31:39;5.50;99.90
13433;DHT22;6789;47.678;9.158;2024-01-06T07:36:31;5.50;99.90
13433;DHT22;6789;47.678;9.158;2024-01-06T07:41:23;5.50;99.90
13433;DHT22;6789;47.678;9.158;2024-01-06T07:46:15;5.50;99.90
13433;DHT22;6789;47.678;9.158;2024-01-06T07:51:10;5.60;99.90
13433;DHT22;6789;47.678;9.158;2024-01-06T07:56:02;5.70;99.90
13433;DHT22;6789;47.678;9.158;2024-01-06T08:00:54;5.70;99.90
13433;DHT22;6789;47.678;9.158;2024-01-06T08:05:46;5.70;99.90
13433;DHT22;6789;47.678;9.158;2024-01-06T08:10:38;5.70;99.90
13433;DHT22;6789;47.678;9.158;2024-01-06T08:15:31;5.80;99.90
13433;DHT22;6789;47.678;9.158;2024-01-06T08:20:24;5.80;99.90
13433;DHT22;6789;47.678;9.158;2024-01-06T08:25:15;5.80;99.90
13433;DHT22;6789;47.678;9.158;2024-01-06T08:30:08;5.80;99.90
13433;DHT22;6789;47.678;9.158;2024-01-06T08:35:01;5.80;99.90
13433;DHT22;6789;47.678;9.158;2024-01-06T08:39:53;5.90;99.90
13433;DHT22;6789;47.678;9.158;2024-01-06T08:44:45;5.90;99.90
13433;DHT22;6789;47.678;9.158;2024-01-06T08:49:36;5.90;99.90
13433;DHT22;6789;47.678;9.158;2024-01-06T08:54:28;6.10;99.90
13433;DHT22;6789;47.678;9.158;2024-01-06T08:59:20;6.20;99.90
13433;DHT22;6789;47.678;9.158;2024-01-06T09:04:12;6.20;99.90
13433;DHT22;6789;47.678;9.158;2024-01-06T09:09:04;6.30;99.90
13433;DHT22;6789;47.678;9.158;2024-01-06T09:13:57;6.30;99.90
13433;DHT22;6789;47.678;9.158;2024-01-06T09:18:49;6.40;99.90
13433;DHT22;6789;47.678;9.158;2024-01-06T09:23:41;6.30;99.90
13433;DHT22;6789;47.678;9.158;2024-01-06T09:28:33;6.40;99.90
13433;DHT22;6789;47.678;9.158;2024-01-06T09:33:24;6.40;99.90
13433;DHT22;6789;47.678;9.158;2024-01-06T09:38:16;6.40;99.90
13433;DHT22;6789;47.678;9.158;2024-01-06T09:43:09;6.50;99.90
13433;DHT22;6789;47.678;9.158;2024-01-06T09:48:11;6.60;99.90
13433;DHT22;6789;47.678;9.158;2024-01-06T09:53:05;6.60;99.90
13433;DHT22;6789;47.678;9.158;2024-01-06T09:57:59;6.60;99.90
13433;DHT22;6789;47.678;9.158;2024-01-06T10:02:54;6.60;99.90
13433;DHT22;6789;47.678;9.158;2024-01-06T10:07:47;6.70;99.90
13433;DHT22;6789;47.678;9.158;2024-01-06T10:12:40;6.70;99.90
13433;DHT22;6789;47.678;9.158;2024-01-06T10:17:36;6.70;99.90
13433;DHT22;6789;47.678;9.158;2024-01-06T10:22:32;6.70;99.90
13433;DHT22;6789;47.678;9.158;2024-01-06T10:27:24;6.70;99.90
13433;DHT22;6789;47.678;9.158;2024-01-06T10:32:16;6.70;99.90
13433;DHT22;6789;47.678;9.158;2024-01-06T10:37:08;6.70;99.90
13433;DHT22;6789;47.678;9.158;2024-01-06T10:42:01;6.80;99.90
13433;DHT22;6789;47.678;9.158;2024-01-06T10:46:57;6.80;99.90
13433;DHT22;6789;47.678;9.158;2024-01-06T10:51:51;6.80;99.90
13433;DHT22;6789;47.678;9.158;2024-01-06T10:56:46;6.60;99.90
13433;DHT22;6789;47.678;9.158;2024-01-06T11:01:41;6.70;99.90
13433;DHT22;6789;47.678;9.158;2024-01-06T11:06:34;6.70;99.90
13433;DHT22;6789;47.678;9.158;2024-01-06T11:11:28;6.80;99.90
13433;DHT22;6789;47.678;9.158;2024-01-06T11:16:37;6.90;99.90
13433;DHT22;6789;47.678;9.158;2024-01-06T11:21:33;7.00;99.90
13433;DHT22;6789;47.678;9.158;2024-01-06T11:26:25;7.00;99.90
13433;DHT22;6789;47.678;9.158;2024-01-06T11:31:18;7.10;99.90
13433;DHT22;6789;47.678;9.158;2024-01-06T11:36:10;7.00;99.90
13433;DHT22;6789;47.678;9.158;2024-01-06T11:41:02;6.90;99.90
13433;DHT22;6789;47.678;9.158;2024-01-06T11:45:58;7.00;99.90
13433;DHT22;6789;47.678;9.158;2024-01-06T11:50:52;7.00;99.90
13433;DHT22;6789;47.678;9.158;2024-01-06T11:55:44;6.90;99.90
13433;DHT22;6789;47.678;9.158;2024-01-06T12:00:36;7.00;99.90
13433;DHT22;6789;47.678;9.158;2024-01-06T12:05:30;6.90;99.90
13433;DHT22;6789;47.678;9.158;2024-01-06T12:10:23;6.90;99.90
13433;DHT22;6789;47.678;9.158;2024-01-06T12:15:16;7.00;99.90
13433;DHT22;6789;47.678;9.158;2024-01-06T12:20:09;7.00;99.90
13433;DHT22;6789;47.678;9.158;2024-01-06T12:25:02;6.90;99.90
13433;DHT22;6789;47.678;9.158;2024-01-06T12:29:57;6.80;99.90
13433;DHT22;6789;47.678;9.158;2024-01-06T12:34:49;6.80;99.90
13433;DHT22;6789;47.678;9.158;2024-01-06T12:39:42;6.80;99.90
13433;DHT22;6789;47.678;9.158;2024-01-06T12:44:36;6.80;99.90
13433;DHT22;6789;47.678;9.158;2024-01-06T12:49:30;6.70;99.90
13433;DHT22;6789;47.678;9.158;2024-01-06T12:54:22;6.60;99.90
13433;DHT22;6789;47.678;9.158;2024-01-06T12:59:13;6.70;99.90
13433;DHT22;6789;47.678;9.158;2024-01-06T13:04:05;6.70;99.90
13433;DHT22;6789;47.678;9.158;2024-01-06T13:08:57;6.80;99.90
13433;DHT22;6789;47.678;9.158;2024-01-06T13:13:49;6.80;99.90
13433;DHT22;6789;47.678;9.158;2024-01-06T13:18:41;6.90;99.90
13433;DHT22;6789;47.678;9.158;2024-01-06T13:23:46;6.90;99.90
13433;DHT22;6789;47.678;9.158;2024-01-06T13:28:52;6.90;99.90
13433;DHT22;6789;47.678;9.158;2024-01-06T13:34:00;6.90;99.90
13433;DHT22;6789;47.678;9.158;2024-01-06T13:38:52;6.90;99.90
13433;DHT22;6789;47.678;9.158;2024-01-06T13:43:44;6.90;99.90
13433;DHT22;6789;47.678;9.158;2024-01-06T13:48:35;6.90;99.90
13433;DHT22;6789;47.678;9.158;2024-01-06T13:53:27;6.90;99.90
13433;DHT22;6789;47.678;9.158;2024-01-06T13:58:19;6.90;99.90
13433;DHT22;6789;47.678;9.158;2024-01-06T14:03:11;6.90;99.90
13433;DHT22;6789;47.678;9.158;2024-01-06T14:08:03;6.80;99.90
13433;DHT22;6789;47.678;9.158;2024-01-06T14:12:55;6.80;99.90
13433;DHT22;6789;47.678;9.158;2024-01-06T14:17:47;6.80;99.90
13433;DHT22;6789;47.678;9.158;2024-01-06T14:22:46;6.70;99.90
13433;DHT22;6789;47.678;9.158;2024-01-06T14:27:39;6.70;99.90
13433;DHT22;6789;47.678;9.158;2024-01-06T14:32:31;6.70;99.90
13433;DHT22;6789;47.678;9.158;2024-01-06T14:37:24;6.60;99.90
13433;DHT22;6789;47.678;9.158;2024-01-06T14:42:16;6.60;99.90
13433;DHT22;6789;47.678;9.158;2024-01-06T14:47:10;6.50;99.90
13433;DHT22;6789;47.678;9.158;2024-01-06T14:52:04;6.50;99.90
13433;DHT22;6789;47.678;9.158;2024-01-06T14:56:57;6.50;99.90
13433;DHT22;6789;47.678;9.158;2024-01-06T15:01:49;6.50;99.90
13433;DHT22;6789;47.678;9.158;2024-01-06T15:06:42;6.20;99.90
13433;DHT22;6789;47.678;9.158;2024-01-06T15:11:35;6.20;99.90
13433;DHT22;6789;47.678;9.158;2024-01-06T15:16:27;6.20;99.90
13433;DHT22;6789;47.678;9.158;2024-01-06T15:21:19;6.30;99.90
13433;DHT22;6789;47.678;9.158;2024-01-06T15:26:21;6.30;99.90
13433;DHT22;6789;47.678;9.158;2024-01-06T15:31:14;6.20;99.90
13433;DHT22;6789;47.678;9.158;2024-01-06T15:36:06;6.20;99.90
13433;DHT22;6789;47.678;9.158;2024-01-06T15:40:58;6.10;99.90
13433;DHT22;6789;47.678;9.158;2024-01-06T15:45:52;6.10;99.90
13433;DHT22;6789;47.678;9.158;2024-01-06T15:50:45;6.00;99.90
13433;DHT22;6789;47.678;9.158;2024-01-06T15:55:37;6.00;99.90
13433;DHT22;6789;47.678;9.158;2024-01-06T16:00:29;6.00;99.90
13433;DHT22;6789;47.678;9.158;2024-01-06T16:05:23;6.00;99.90
13433;DHT22;6789;47.678;9.158;2024-01-06T16:10:15;5.90;99.90
13433;DHT22;6789;47.678;9.158;2024-01-06T16:15:07;6.00;99.90
13433;DHT22;6789;47.678;9.158;2024-01-06T16:19:59;6.00;99.90
13433;DHT22;6789;47.678;9.158;2024-01-06T16:24:56;6.20;99.90
13433;DHT22;6789;47.678;9.158;2024-01-06T16:29:48;6.20;99.90
13433;DHT22;6789;47.678;9.158;2024-01-06T16:34:40;6.20;99.90
13433;DHT22;6789;47.678;9.158;2024-01-06T16:39:33;6.00;99.90
13433;DHT22;6789;47.678;9.158;2024-01-06T16:44:25;6.00;99.90
13433;DHT22;6789;47.678;9.158;2024-01-06T16:49:17;6.10;99.90
13433;DHT22;6789;47.678;9.158;2024-01-06T16:54:08;6.00;99.90
13433;DHT22;6789;47.678;9.158;2024-01-06T16:59:00;6.10;99.90
13433;DHT22;6789;47.678;9.158;2024-01-06T17:03:52;6.10;99.90
13433;DHT22;6789;47.678;9.158;2024-01-06T17:08:44;6.10;99.90
13433;DHT22;6789;47.678;9.158;2024-01-06T17:13:35;6.10;99.90
13433;DHT22;6789;47.678;9.158;2024-01-06T17:18:27;6.00;99.90
13433;DHT22;6789;47.678;9.158;2024-01-06T17:23:19;6.10;99.90
13433;DHT22;6789;47.678;9.158;2024-01-06T17:28:11;6.10;99.90
13433;DHT22;6789;47.678;9.158;2024-01-06T17:33:03;5.90;99.90
13433;DHT22;6789;47.678;9.158;2024-01-06T17:37:55;5.80;99.90
13433;DHT22;6789;47.678;9.158;2024-01-06T17:42:47;5.80;99.90
13433;DHT22;6789;47.678;9.158;2024-01-06T17:47:38;5.80;99.90
13433;DHT22;6789;47.678;9.158;2024-01-06T17:52:32;5.80;99.90
13433;DHT22;6789;47.678;9.158;2024-01-06T17:57:24;5.80;99.90
13433;DHT22;6789;47.678;9.158;2024-01-06T18:02:16;5.70;99.90
13433;DHT22;6789;47.678;9.158;2024-01-06T18:07:08;5.70;99.90
13433;DHT22;6789;47.678;9.158;2024-01-06T18:12:00;5.60;99.90
13433;DHT22;6789;47.678;9.158;2024-01-06T18:16:52;5.60;99.90
13433;DHT22;6789;47.678;9.158;2024-01-06T18:21:44;5.60;99.90
13433;DHT22;6789;47.678;9.158;2024-01-06T18:26:36;5.50;99.90
13433;DHT22;6789;47.678;9.158;2024-01-06T18:31:28;5.40;99.90
13433;DHT22;6789;47.678;9.158;2024-01-06T18:36:20;5.30;99.90
13433;DHT22;6789;47.678;9.158;2024-01-06T18:41:13;5.40;99.90
13433;DHT22;6789;47.678;9.158;2024-01-06T18:46:04;5.30;99.90
13433;DHT22;6789;47.678;9.158;2024-01-06T18:50:56;5.30;99.90
13433;DHT22;6789;47.678;9.158;2024-01-06T18:55:48;5.30;99.90
13433;DHT22;6789;47.678;9.158;2024-01-06T19:00:40;5.20;99.90
13433;DHT22;6789;47.678;9.158;2024-01-06T19:05:32;5.20;99.90
13433;DHT22;6789;47.678;9.158;2024-01-06T19:10:24;5.20;99.90
13433;DHT22;6789;47.678;9.158;2024-01-06T19:15:16;5.30;99.90
13433;DHT22;6789;47.678;9.158;2024-01-06T19:20:08;5.30;99.90
13433;DHT22;6789;47.678;9.158;2024-01-06T19:25:01;5.30;99.90
13433;DHT22;6789;47.678;9.158;2024-01-06T19:29:52;5.30;99.90
13433;DHT22;6789;47.678;9.158;2024-01-06T19:34:44;5.20;99.90
13433;DHT22;6789;47.678;9.158;2024-01-06T19:39:37;5.20;99.90
13433;DHT22;6789;47.678;9.158;2024-01-06T19:44:29;5.10;99.90
13433;DHT22;6789;47.678;9.158;2024-01-06T19:49:21;5.10;99.90
13433;DHT22;6789;47.678;9.158;2024-01-06T19:54:13;5.10;99.90
13433;DHT22;6789;47.678;9.158;2024-01-06T19:59:08;5.10;99.90
13433;DHT22;6789;47.678;9.158;2024-01-06T20:04:00;5.20;99.90
13433;DHT22;6789;47.678;9.158;2024-01-06T20:08:52;5.20;99.90
13433;DHT22;6789;47.678;9.158;2024-01-06T20:13:44;5.20;99.90
13433;DHT22;6789;47.678;9.158;2024-01-06T20:18:36;5.10;99.90
13433;DHT22;6789;47.678;9.158;2024-01-06T20:23:28;5.10;99.90
13433;DHT22;6789;47.678;9.158;2024-01-06T20:28:21;5.10;99.90
13433;DHT22;6789;47.678;9.158;2024-01-06T20:33:13;5.00;99.90
13433;DHT22;6789;47.678;9.158;2024-01-06T20:38:06;5.00;99.90
13433;DHT22;6789;47.678;9.158;2024-01-06T20:42:58;4.90;99.90
13433;DHT22;6789;47.678;9.158;2024-01-06T20:47:50;4.90;99.90
13433;DHT22;6789;47.678;9.158;2024-01-06T20:52:42;4.80;99.90
13433;DHT22;6789;47.678;9.158;2024-01-06T20:57:34;4.80;99.90
13433;DHT22;6789;47.678;9.158;2024-01-06T21:02:26;4.90;99.90
13433;DHT22;6789;47.678;9.158;2024-01-06T21:07:18;4.90;99.90
13433;DHT22;6789;47.678;9.158;2024-01-06T21:12:10;4.90;99.90
13433;DHT22;6789;47.678;9.158;2024-01-06T21:17:01;4.90;99.90
13433;DHT22;6789;47.678;9.158;2024-01-06T21:21:53;4.90;99.90
13433;DHT22;6789;47.678;9.158;2024-01-06T21:26:45;4.90;99.90
13433;DHT22;6789;47.678;9.158;2024-01-06T21:31:37;4.90;99.90
13433;DHT22;6789;47.678;9.158;2024-01-06T21:36:30;4.90;99.90
13433;DHT22;6789;47.678;9.158;2024-01-06T21:41:22;4.90;99.90
13433;DHT22;6789;47.678;9.158;2024-01-06T21:46:14;4.90;99.90
13433;DHT22;6789;47.678;9.158;2024-01-06T21:51:06;5.00;99.90
13433;DHT22;6789;47.678;9.158;2024-01-06T21:55:58;5.00;99.90
13433;DHT22;6789;47.678;9.158;2024-01-06T22:00:50;4.80;99.90
13433;DHT22;6789;47.678;9.158;2024-01-06T22:05:43;4.80;99.90
13433;DHT22;6789;47.678;9.158;2024-01-06T22:10:34;4.90;99.90
13433;DHT22;6789;47.678;9.158;2024-01-06T22:15:26;4.90;99.90
13433;DHT22;6789;47.678;9.158;2024-01-06T22:20:19;4.90;99.90
13433;DHT22;6789;47.678;9.158;2024-01-06T22:25:11;4.80;99.90
13433;DHT22;6789;47.678;9.158;2024-01-06T22:30:03;4.90;99.90
13433;DHT22;6789;47.678;9.158;2024-01-06T22:34:56;4.70;99.90
13433;DHT22;6789;47.678;9.158;2024-01-06T22:39:48;4.70;99.90
13433;DHT22;6789;47.678;9.158;2024-01-06T22:44:40;4.70;99.90
13433;DHT22;6789;47.678;9.158;2024-01-06T22:49:33;4.60;99.90
13433;DHT22;6789;47.678;9.158;2024-01-06T22:54:25;4.50;99.90
13433;DHT22;6789;47.678;9.158;2024-01-06T22:59:17;4.50;99.90
13433;DHT22;6789;47.678;9.158;2024-01-06T23:04:10;4.50;99.90
13433;DHT22;6789;47.678;9.158;2024-01-06T23:14:55;4.60;99.90
13433;DHT22;6789;47.678;9.158;2024-01-06T23:19:46;4.50;99.90
13433;DHT22;6789;47.678;9.158;2024-01-06T23:24:38;4.60;99.90
13433;DHT22;6789;47.678;9.158;2024-01-06T23:29:30;4.60;99.90
13433;DHT22;6789;47.678;9.158;2024-01-06T23:34:22;4.60;99.90
13433;DHT22;6789;47.678;9.158;2024-01-06T23:39:29;4.70;99.90
13433;DHT22;6789;47.678;9.158;2024-01-06T23:44:20;4.60;99.90
13433;DHT22;6789;47.678;9.158;2024-01-06T23:49:13;4.70;99.90
13433;DHT22;6789;47.678;9.158;2024-01-06T23:54:05;4.70;99.90
13433;DHT22;6789;47.678;9.158;2024-01-06T23:58:57;4.70;99.90
